Time;durP1;ratioP1;P1;durP2;ratioP2;P2;SDS_P1;SDS_P2;PMS_P1;PMS_P2;Temp;Humidity;BMP_temperature;BMP_pressure;BME280_temperature;BME280_humidity;BME280_pressure;Samples;Min_cycle;Max_cycle;Signal;HPM_P1;HPM_P2
2022/11/11 00:01:15;;;;;;;;;49.40;39.00;;;;;12.83;64.50;100171.47;6185670;28;96397;-72
2022/11/11 00:04:37;;;;;;;;;52.80;41.40;;;;;12.79;64.47;100172.94;6177654;28;97653;-73
2022/11/11 00:07:59;;;;;;;;;48.75;39.00;;;;;12.75;64.29;100177.94;6162716;28;96687;-72
2022/11/11 00:11:21;;;;;;;;;49.25;40.25;;;;;12.72;64.59;100183.72;6175535;28;96349;-71
2022/11/11 00:14:43;;;;;;;;;49.00;40.00;;;;;12.69;64.71;100186.84;6180477;28;96699;-72
2022/11/11 00:25:40;;;;;;;;;49.40;40.00;;;;;12.71;64.65;100198.28;6168497;28;96479;-71
2022/11/11 00:29:03;;;;;;;;;48.60;38.00;;;;;12.74;64.71;100197.91;6172394;28;96319;-72
2022/11/11 00:32:26;;;;;;;;;48.25;39.00;;;;;12.75;64.44;100196.88;6176616;28;96452;-73
2022/11/11 00:35:56;;;;;;;;;45.75;38.00;;;;;12.75;64.17;100196.03;6167669;28;98804;-71
2022/11/11 00:39:18;;;;;;;;;47.20;38.00;;;;;12.73;64.14;100200.81;6184981;28;96580;-69
2022/11/11 00:42:40;;;;;;;;;45.00;38.00;;;;;12.74;64.28;100199.78;6171034;28;96531;-71
2022/11/11 00:53:25;;;;;;;;;45.40;37.40;;;;;12.72;64.58;100197.25;6177000;28;96370;-71
2022/11/11 00:56:48;;;;;;;;;44.60;37.00;;;;;12.66;64.59;100189.94;6180551;28;97090;-71
2022/11/11 01:00:11;;;;;;;;;45.00;38.00;;;;;12.73;64.79;100193.53;6184709;28;96515;-70
2022/11/11 01:03:33;;;;;;;;;47.60;38.00;;;;;12.78;64.84;100193.75;6181700;28;96302;-70
2022/11/11 01:06:56;;;;;;;;;47.00;36.40;;;;;12.83;64.61;100193.97;6155181;28;97339;-71
2022/11/11 01:13:56;;;;;;;;;41.50;35.00;;;;;12.80;63.97;100188.13;6182794;28;96813;-73
2022/11/11 01:17:18;;;;;;;;;44.20;36.00;;;;;12.78;63.98;100187.50;6188292;28;96210;-72
2022/11/11 01:20:41;;;;;;;;;42.00;36.00;;;;;12.70;63.81;100185.81;6184204;28;96602;-72
2022/11/11 01:24:03;;;;;;;;;44.75;37.50;;;;;12.66;63.73;100181.81;6168184;28;97549;-72
2022/11/11 01:27:26;;;;;;;;;45.00;36.80;;;;;12.60;63.62;100182.66;6178708;28;96290;-72
2022/11/11 01:30:49;;;;;;;;;46.20;36.60;;;;;12.54;63.57;100173.50;6182539;28;96822;-70
2022/11/11 01:34:11;;;;;;;;;43.40;36.00;;;;;12.43;63.00;100178.63;6184615;28;96286;-71
2022/11/11 01:37:33;;;;;;;;;47.75;38.25;;;;;12.18;62.98;100169.38;6188431;28;96469;-72
2022/11/11 01:40:55;;;;;;;;;43.50;35.25;;;;;12.20;62.72;100176.25;6172286;28;96400;-73
2022/11/11 01:44:43;;;;;;;;;43.20;35.60;;;;;12.12;63.73;100176.41;6161423;28;98691;-73
2022/11/11 01:52:02;;;;;;;;;43.00;35.40;;;;;11.99;64.64;100179.06;6184534;28;96590;-72
2022/11/11 01:55:25;;;;;;;;;45.00;35.00;;;;;11.96;65.17;100180.28;6160630;28;98374;-73
2022/11/11 01:58:47;;;;;;;;;41.00;35.00;;;;;12.00;65.52;100186.97;6162115;28;96565;-72
2022/11/11 02:02:17;;;;;;;;;42.40;35.00;;;;;12.06;65.48;100188.88;6158896;28;96828;-70
2022/11/11 02:05:42;;;;;;;;;42.00;35.00;;;;;12.08;65.80;100188.66;6161736;28;96288;-72
2022/11/11 02:09:06;;;;;;;;;43.00;36.00;;;;;12.14;65.99;100179.75;6150133;28;96291;-71
2022/11/11 02:16:07;;;;;;;;;43.80;33.40;;;;;12.32;65.70;100192.72;6158872;28;96271;-69
2022/11/11 02:19:40;;;;;;;;;44.60;36.00;;;;;12.37;65.81;100188.38;6147249;28;96544;-71
2022/11/11 02:23:09;;;;;;;;;44.60;36.00;;;;;12.43;65.71;100195.69;6147598;28;96893;-71
2022/11/11 02:26:34;;;;;;;;;44.00;36.00;;;;;12.51;65.58;100194.72;6146668;28;96685;-70
2022/11/11 02:30:00;;;;;;;;;47.25;38.00;;;;;12.55;65.20;100204.91;6152477;28;96520;-71
2022/11/11 02:33:22;;;;;;;;;43.20;36.20;;;;;12.64;65.10;100202.03;6161648;28;96384;-71
2022/11/11 02:36:45;;;;;;;;;45.40;37.00;;;;;12.66;64.70;100205.38;6152277;28;96731;-70
2022/11/11 02:40:08;;;;;;;;;43.00;35.00;;;;;12.66;64.63;100197.25;6158926;28;96431;-71
2022/11/11 02:43:33;;;;;;;;;44.00;34.00;;;;;12.79;64.61;100208.13;6163412;28;96614;-71
2022/11/11 02:46:55;;;;;;;;;44.00;37.00;;;;;12.81;64.22;100209.56;6151797;28;97658;-70
2022/11/11 02:50:17;;;;;;;;;41.00;35.40;;;;;12.79;63.70;100217.06;6156987;28;97188;-70
2022/11/11 02:53:39;;;;;;;;;43.00;36.00;;;;;12.81;63.77;100222.25;6146672;28;96551;-71
2022/11/11 02:57:09;;;;;;;;;47.00;36.25;;;;;12.76;64.04;100222.88;6136309;28;96688;-72
2022/11/11 03:00:33;;;;;;;;;43.20;35.60;;;;;12.74;64.07;100226.84;6131738;28;96713;-71
2022/11/11 03:03:55;;;;;;;;;44.40;35.20;;;;;12.73;64.19;100234.13;6130737;28;99167;-72
2022/11/11 03:07:17;;;;;;;;;43.00;37.00;;;;;12.75;64.10;100228.50;6138517;28;96303;-72
2022/11/11 03:10:39;;;;;;;;;46.25;37.75;;;;;12.59;64.19;100208.03;6122801;28;96773;-70
2022/11/11 03:14:01;;;;;;;;;47.00;37.40;;;;;12.71;64.20;100211.81;6137239;28;96906;-71
2022/11/11 03:17:40;;;;;;;;;45.20;36.80;;;;;12.62;64.62;100217.63;6138302;28;96645;-69
2022/11/11 03:21:05;;;;;;;;;47.00;38.40;;;;;12.58;64.83;100215.31;6152469;28;97052;-71
2022/11/11 03:28:26;;;;;;;;;44.00;37.00;;;;;12.53;65.40;100217.81;6135264;28;96329;-70
2022/11/11 03:31:48;;;;;;;;;45.50;36.50;;;;;12.57;65.27;100212.81;6127971;28;96715;-71
2022/11/11 03:35:11;;;;;;;;;41.00;34.20;;;;;12.50;65.46;100198.44;6137570;28;97199;-68
2022/11/11 03:38:32;;;;;;;;;46.50;38.00;;;;;12.64;65.25;100219.09;6136871;28;97549;-72
2022/11/11 03:41:54;;;;;;;;;44.80;35.80;;;;;12.71;65.18;100216.41;6137208;28;96429;-70
2022/11/11 03:45:16;;;;;;;;;45.50;36.00;;;;;12.79;64.85;100219.78;6137421;28;96375;-72
2022/11/11 03:48:38;;;;;;;;;41.20;34.00;;;;;12.85;64.73;100216.22;6122364;28;97070;-70
2022/11/11 03:52:01;;;;;;;;;45.40;37.40;;;;;12.93;64.51;100218.78;6136655;28;96344;-71
2022/11/11 03:55:22;;;;;;;;;44.40;35.00;;;;;13.00;64.07;100207.94;6163802;28;96855;-71
2022/11/11 03:58:44;;;;;;;;;42.40;34.60;;;;;12.99;63.83;100217.97;6184701;28;96213;-71
2022/11/11 04:16:49;;;;;;;;;38.60;33.00;;;;;13.14;62.98;100212.41;6185184;28;96433;-68
2022/11/11 04:23:50;;;;;;;;;37.25;32.25;;;;;13.14;62.96;100206.13;6180370;28;96840;-70
2022/11/11 04:27:15;;;;;;;;;38.50;32.00;;;;;13.01;62.83;100175.25;6174541;28;96321;-70
2022/11/11 04:30:37;;;;;;;;;43.25;35.75;;;;;13.14;62.67;100206.97;6183981;28;96430;-72
2022/11/11 04:33:59;;;;;;;;;42.20;35.00;;;;;13.10;62.45;100205.66;6182992;28;96409;-71
2022/11/11 04:37:22;;;;;;;;;44.00;35.00;;;;;13.13;62.60;100201.75;6176237;28;96872;-70
2022/11/11 04:41:02;;;;;;;;;42.60;35.20;;;;;13.15;62.58;100214.03;6190323;28;96373;-71
2022/11/11 04:48:08;;;;;;;;;36.20;32.00;;;;;13.16;62.11;100206.75;6188065;28;97056;-68
2022/11/11 04:52:25;;;;;;;;;43.00;35.00;;;;;13.18;62.11;100210.94;6180306;28;96667;-71
2022/11/11 04:59:14;;;;;;;;;38.60;33.00;;;;;13.19;61.95;100222.59;6182632;28;96525;-70
2022/11/11 05:09:53;;;;;;;;;43.80;36.80;;;;;13.11;62.07;100223.63;6158827;28;96471;-70
2022/11/11 05:27:56;;;;;;;;;44.40;35.80;;;;;12.95;62.48;100257.28;6161885;28;96750;-70
2022/11/11 05:31:18;;;;;;;;;42.00;35.60;;;;;12.96;62.29;100264.38;6174322;28;96803;-71
2022/11/11 05:34:40;;;;;;;;;39.60;34.00;;;;;12.95;62.12;100259.19;6191637;28;96932;-71
2022/11/11 05:38:21;;;;;;;;;45.00;36.00;;;;;12.90;62.19;100259.75;6188476;28;97761;-71
2022/11/11 05:41:43;;;;;;;;;44.50;36.00;;;;;12.92;62.51;100271.22;6185929;28;96297;-71
2022/11/11 05:45:06;;;;;;;;;41.25;34.50;;;;;12.95;62.36;100261.88;6176462;28;96105;-69
2022/11/11 05:48:28;;;;;;;;;47.00;39.00;;;;;12.95;62.28;100268.09;6176872;28;96294;-72
2022/11/11 05:51:50;;;;;;;;;45.40;38.00;;;;;12.94;62.13;100273.75;6153634;28;96685;-67
2022/11/11 05:55:13;;;;;;;;;44.00;37.00;;;;;12.95;62.39;100276.22;6185958;28;96605;-70
2022/11/11 05:58:35;;;;;;;;;45.00;35.40;;;;;12.96;62.27;100288.72;6179206;28;96829;-71
2022/11/11 06:01:57;;;;;;;;;45.00;37.25;;;;;12.87;62.31;100279.13;6182277;28;97204;-70
2022/11/11 06:05:19;;;;;;;;;42.00;36.00;;;;;13.03;62.49;100296.88;6187213;28;96353;-71
2022/11/11 06:08:41;;;;;;;;;48.60;39.00;;;;;13.06;61.99;100301.06;6161254;28;96836;-73
2022/11/11 06:12:05;;;;;;;;;50.00;40.00;;;;;13.06;61.98;100295.63;6172501;28;97077;-70
2022/11/11 06:15:27;;;;;;;;;47.00;38.00;;;;;13.08;62.21;100304.41;6187845;28;96469;-68
2022/11/11 06:18:49;;;;;;;;;41.00;33.00;;;;;13.10;62.06;100300.44;6169404;28;97566;-68
2022/11/11 06:22:12;;;;;;;;;44.50;37.00;;;;;13.16;62.02;100296.94;6172174;28;96530;-68
2022/11/11 06:29:15;;;;;;;;;44.25;36.50;;;;;14.54;59.18;100293.44;6167846;28;96757;-67
2022/11/11 06:32:37;;;;;;;;;43.40;36.00;;;;;15.58;54.79;100299.44;6187046;28;97626;-67
2022/11/11 06:35:58;;;;;;;;;46.75;38.75;;;;;15.44;53.89;100306.78;6184686;28;96269;-67
2022/11/11 06:39:21;;;;;;;;;46.25;38.25;;;;;15.05;54.27;100313.28;6166461;28;98373;-68
2022/11/11 06:42:43;;;;;;;;;43.80;36.00;;;;;14.86;55.38;100299.78;6187151;28;96400;-68
2022/11/11 06:46:07;;;;;;;;;43.00;34.80;;;;;14.75;55.86;100304.03;6180672;28;96501;-68
2022/11/11 06:49:29;;;;;;;;;42.25;35.00;;;;;14.60;56.13;100298.03;6206258;28;96305;-67
2022/11/11 06:52:51;;;;;;;;;38.80;33.60;;;;;14.53;56.61;100283.63;6201763;28;96430;-68
2022/11/11 06:56:12;;;;;;;;;42.75;35.00;;;;;14.49;57.07;100285.94;6180881;28;96560;-67
2022/11/11 06:59:34;;;;;;;;;39.60;33.00;;;;;14.54;57.02;100301.59;6175515;28;96340;-67
2022/11/11 07:02:57;;;;;;;;;39.50;33.25;;;;;14.62;56.95;100294.03;6194571;28;96319;-67
2022/11/11 07:06:19;;;;;;;;;41.20;34.00;;;;;14.74;56.79;100294.22;6171283;28;96969;-68
2022/11/11 07:09:41;;;;;;;;;32.60;30.00;;;;;14.80;56.21;100300.66;6166243;28;96920;-68
2022/11/11 07:13:04;;;;;;;;;32.00;30.00;;;;;14.89;55.91;100307.53;6178347;28;96701;-68
2022/11/11 07:16:25;;;;;;;;;32.60;30.00;;;;;14.90;55.70;100306.47;6185356;28;97055;-68
2022/11/11 07:19:49;;;;;;;;;37.00;32.00;;;;;14.87;55.81;100298.75;6180623;28;96734;-68
2022/11/11 07:23:10;;;;;;;;;35.00;32.00;;;;;15.01;55.41;100292.19;6184956;28;96489;-67
2022/11/11 07:26:32;;;;;;;;;36.00;31.00;;;;;15.00;54.96;100283.22;6186564;28;96922;-68
2022/11/11 07:29:54;;;;;;;;;34.00;31.50;;;;;15.30;54.83;100288.91;6165077;28;96743;-69
2022/11/11 07:33:16;;;;;;;;;33.40;30.00;;;;;15.82;53.48;100295.91;6182290;28;97106;-67
2022/11/11 07:36:46;;;;;;;;;37.33;32.33;;;;;15.96;51.78;100278.41;6176753;28;96440;-68
2022/11/11 07:40:08;;;;;;;;;34.60;32.00;;;;;16.07;51.65;100279.59;6178752;28;96353;-69
2022/11/11 07:43:31;;;;;;;;;32.75;30.75;;;;;16.15;51.34;100279.28;6178449;28;96273;-67
2022/11/11 07:46:52;;;;;;;;;35.00;30.40;;;;;16.33;51.00;100282.03;6170078;28;96413;-68
2022/11/11 07:50:14;;;;;;;;;32.33;28.00;;;;;16.61;50.27;100288.91;6159610;28;98522;-68
2022/11/11 07:53:38;;;;;;;;;32.80;27.40;;;;;17.00;49.45;100287.59;6177732;28;96538;-68
2022/11/11 07:57:00;;;;;;;;;28.80;28.00;;;;;18.83;45.82;100288.31;6185739;28;96919;-68
2022/11/11 08:00:22;;;;;;;;;26.00;23.20;;;;;19.71;41.92;100247.63;6186228;28;96619;-68
2022/11/11 08:03:49;;;;;;;;;26.00;22.50;;;;;21.26;39.94;100259.41;6163813;28;96801;-68
2022/11/11 08:07:11;;;;;;;;;24.00;21.00;;;;;23.89;35.82;100258.09;6165453;28;97665;-68
2022/11/11 08:10:35;;;;;;;;;24.00;21.00;;;;;27.03;29.72;100245.84;6162087;28;96833;-67
2022/11/11 08:13:56;;;;;;;;;22.00;21.00;;;;;29.33;27.07;100247.84;6186333;28;97006;-68
2022/11/11 08:17:18;;;;;;;;;18.80;17.20;;;;;31.39;24.41;100240.59;6189013;28;96659;-69
2022/11/11 08:20:40;;;;;;;;;16.40;16.00;;;;;33.26;22.26;100244.34;6186961;28;96876;-69
2022/11/11 08:24:08;;;;;;;;;17.00;16.00;;;;;34.66;20.71;100231.09;6201681;28;96669;-68
2022/11/11 08:27:56;;;;;;;;;15.40;14.00;;;;;36.01;18.64;100241.69;6195995;28;97594;-69
2022/11/11 08:31:18;;;;;;;;;17.00;16.00;;;;;37.16;17.97;100255.50;6200574;28;96545;-69
2022/11/11 08:34:41;;;;;;;;;18.00;17.00;;;;;37.77;17.15;100262.47;6182738;28;96546;-69
2022/11/11 08:38:02;;;;;;;;;18.33;18.00;;;;;38.27;17.16;100255.84;6190884;28;97223;-70
2022/11/11 08:41:24;;;;;;;;;18.00;16.00;;;;;38.91;15.72;100255.78;6190912;28;97160;-70
2022/11/11 08:44:47;;;;;;;;;15.80;15.20;;;;;39.00;15.53;100259.13;6190993;28;96681;-69
2022/11/11 08:48:10;;;;;;;;;16.00;14.50;;;;;38.78;15.42;100256.34;6190558;28;96380;-69
2022/11/11 08:51:32;;;;;;;;;17.00;16.00;;;;;38.76;15.74;100248.25;6190866;28;96449;-69
2022/11/11 08:55:05;;;;;;;;;15.00;15.00;;;;;39.28;15.55;100257.94;6178049;28;96392;-69
2022/11/11 08:58:27;;;;;;;;;15.00;14.00;;;;;39.95;14.87;100261.69;6190468;28;97183;-70
2022/11/11 09:01:50;;;;;;;;;13.00;13.00;;;;;40.21;13.93;100263.63;6190315;28;96529;-69
2022/11/11 09:05:12;;;;;;;;;13.00;11.60;;;;;40.07;14.10;100261.44;6178063;28;97046;-70
2022/11/11 09:08:34;;;;;;;;;11.00;11.00;;;;;40.39;14.00;100260.94;6179818;28;97807;-70
2022/11/11 09:11:56;;;;;;;;;11.40;10.20;;;;;40.45;13.88;100253.75;6184928;28;96669;-69
2022/11/11 09:15:18;;;;;;;;;12.50;12.00;;;;;40.33;14.49;100245.53;6190279;28;96553;-70
2022/11/11 09:18:41;;;;;;;;;12.00;12.00;;;;;39.52;14.64;100234.91;6191260;28;96446;-70
2022/11/11 09:22:03;;;;;;;;;14.00;13.00;;;;;38.67;15.09;100235.63;6202819;28;96909;-69
2022/11/11 09:25:25;;;;;;;;;11.20;10.60;;;;;37.75;15.50;100226.25;6170423;28;97309;-70
2022/11/11 09:28:47;;;;;;;;;11.00;10.00;;;;;36.44;16.81;100234.41;6192381;28;96914;-69
2022/11/11 09:32:08;;;;;;;;;14.40;13.00;;;;;35.29;17.50;100245.53;6189454;28;96528;-69
2022/11/11 09:35:32;;;;;;;;;12.20;11.20;;;;;34.19;18.57;100246.66;6185542;28;96386;-69
2022/11/11 09:38:54;;;;;;;;;12.00;12.00;;;;;32.88;19.23;100253.63;6165028;28;96268;-69
2022/11/11 09:42:33;;;;;;;;;13.00;11.80;;;;;31.83;20.42;100240.28;6187203;28;96620;-69
2022/11/11 09:46:10;;;;;;;;;12.00;11.00;;;;;30.57;21.42;100235.00;6189556;28;96320;-69
2022/11/11 09:49:45;;;;;;;;;11.60;11.00;;;;;29.49;22.90;100244.44;6200040;28;96428;-69
2022/11/11 09:53:18;;;;;;;;;15.00;14.20;;;;;28.76;23.96;100252.97;6194698;28;96418;-68
2022/11/11 09:56:40;;;;;;;;;16.00;15.00;;;;;27.94;24.56;100237.00;6188790;28;96314;-69
2022/11/11 10:00:05;;;;;;;;;15.00;14.00;;;;;27.55;26.27;100239.31;6189484;28;96392;-69
2022/11/11 10:03:30;;;;;;;;;14.40;12.60;;;;;27.35;26.21;100232.13;6189133;28;96515;-69
2022/11/11 10:06:57;;;;;;;;;15.00;14.50;;;;;27.19;26.89;100255.59;6187493;28;96928;-70
2022/11/11 10:10:42;;;;;;;;;15.80;15.80;;;;;27.06;26.70;100250.81;6172924;28;96444;-69
2022/11/11 10:14:04;;;;;;;;;16.60;15.00;;;;;27.14;26.58;100242.66;6188877;28;96500;-69
2022/11/11 10:17:35;;;;;;;;;13.00;13.00;;;;;27.20;26.18;100226.81;6189241;28;96485;-68
2022/11/11 10:20:57;;;;;;;;;12.00;11.00;;;;;28.07;25.99;100232.59;6178942;28;96473;-68
2022/11/11 10:24:29;;;;;;;;;13.50;11.00;;;;;29.73;23.86;100221.88;6188469;28;97117;-69
2022/11/11 10:27:56;;;;;;;;;13.00;11.00;;;;;31.23;21.95;100228.28;6188316;28;96415;-70
2022/11/11 10:31:22;;;;;;;;;14.00;13.00;;;;;31.10;21.68;100240.41;6170718;28;96993;-69
2022/11/11 10:34:44;;;;;;;;;13.20;12.20;;;;;29.84;23.25;100225.22;6179059;28;96379;-69
2022/11/11 10:38:23;;;;;;;;;13.00;13.00;;;;;28.63;24.45;100229.63;6184774;28;97610;-69
2022/11/11 10:41:49;;;;;;;;;12.00;11.00;;;;;27.81;25.32;100229.44;6187990;28;96985;-69
2022/11/11 10:45:23;;;;;;;;;9.50;8.00;;;;;27.37;25.34;100226.25;6188522;28;96432;-68
2022/11/11 10:48:54;;;;;;;;;10.80;10.00;;;;;27.15;26.11;100230.47;6173565;28;96482;-69
2022/11/11 10:52:21;;;;;;;;;11.40;11.40;;;;;28.07;25.64;100229.00;6188252;28;97646;-69
2022/11/11 10:55:49;;;;;;;;;12.80;11.80;;;;;29.24;23.80;100233.88;6188712;28;96437;-69
2022/11/11 10:59:18;;;;;;;;;11.80;11.00;;;;;29.53;23.38;100223.19;6179675;28;97351;-69
2022/11/11 11:02:49;;;;;;;;;12.60;12.00;;;;;30.67;22.07;100218.00;6185704;28;97207;-69
2022/11/11 11:06:14;;;;;;;;;13.50;12.50;;;;;31.15;21.85;100206.81;6166607;28;96989;-69
2022/11/11 11:09:42;;;;;;;;;12.00;11.00;;;;;31.33;21.45;100192.56;6188134;28;96608;-68
2022/11/11 11:13:09;;;;;;;;;12.25;11.25;;;;;32.00;20.92;100205.13;6186965;28;96821;-68
2022/11/11 11:16:35;;;;;;;;;13.00;11.00;;;;;32.82;20.12;100193.50;6185812;28;96475;-68
2022/11/11 11:20:12;;;;;;;;;11.00;10.00;;;;;32.53;20.23;100193.47;6186266;28;96718;-69
2022/11/11 11:23:39;;;;;;;;;12.00;11.75;;;;;32.27;20.64;100198.34;6190702;28;96622;-69
2022/11/11 11:27:03;;;;;;;;;12.20;12.20;;;;;32.05;21.02;100194.63;6174929;28;97150;-67
2022/11/11 11:30:26;;;;;;;;;13.40;11.40;;;;;31.81;20.83;100194.38;6187548;28;97067;-68
2022/11/11 11:33:51;;;;;;;;;11.00;10.00;;;;;32.17;20.97;100191.97;6186620;28;97131;-68
2022/11/11 11:37:15;;;;;;;;;13.00;11.00;;;;;32.55;20.54;100183.59;6197520;28;96319;-68
2022/11/11 11:40:51;;;;;;;;;12.00;11.00;;;;;32.33;20.49;100177.47;6187557;28;96282;-69
2022/11/11 11:44:34;;;;;;;;;13.40;13.00;;;;;31.95;20.82;100166.25;6165849;28;96714;-68
2022/11/11 11:48:09;;;;;;;;;11.00;10.00;;;;;31.25;21.80;100168.31;6186475;28;97168;-68
2022/11/11 11:52:03;;;;;;;;;14.00;14.00;;;;;29.57;23.18;100167.78;6187250;28;96355;-70
2022/11/11 11:55:35;;;;;;;;;12.20;9.00;;;;;28.90;24.17;100170.50;6186434;28;96507;-68
2022/11/11 11:59:05;;;;;;;;;12.00;11.00;;;;;28.24;25.14;100177.41;6171635;28;96779;-68
2022/11/11 12:02:51;;;;;;;;;11.00;10.80;;;;;27.39;25.98;100177.75;6165136;28;96315;-69
2022/11/11 12:06:21;;;;;;;;;13.00;11.40;;;;;26.74;26.51;100173.97;6168930;28;96478;-67
2022/11/11 12:09:57;;;;;;;;;9.80;8.80;;;;;25.93;27.30;100179.63;6185698;28;96917;-67
2022/11/11 12:13:34;;;;;;;;;12.00;11.00;;;;;25.38;28.05;100173.44;6186565;28;96853;-67
2022/11/11 12:17:02;;;;;;;;;10.25;9.50;;;;;24.71;28.87;100185.97;6187134;28;96514;-67
2022/11/11 12:20:28;;;;;;;;;9.40;8.00;;;;;24.29;29.84;100175.38;6186857;28;96307;-67
2022/11/11 12:24:11;;;;;;;;;9.00;8.00;;;;;23.58;30.50;100155.41;6186963;28;96601;-68
2022/11/11 12:27:44;;;;;;;;;12.00;11.00;;;;;23.12;31.46;100163.59;6168407;28;96737;-68
2022/11/11 12:31:25;;;;;;;;;11.40;10.00;;;;;22.55;32.47;100146.38;6174708;28;96317;-68
2022/11/11 12:35:06;;;;;;;;;11.00;9.00;;;;;22.32;33.31;100156.75;6171767;28;97198;-68
2022/11/11 12:38:47;;;;;;;;;8.00;8.00;;;;;21.89;34.19;100152.34;6185766;28;96408;-67
2022/11/11 12:42:17;;;;;;;;;12.00;11.00;;;;;21.53;34.93;100148.53;6186458;28;96486;-67
2022/11/11 12:45:47;;;;;;;;;9.00;8.00;;;;;21.25;35.83;100159.00;6186384;28;96488;-67
2022/11/11 12:49:29;;;;;;;;;11.40;11.40;;;;;21.05;36.03;100171.41;6168403;28;96703;-68
2022/11/11 12:53:05;;;;;;;;;10.60;9.60;;;;;20.81;36.60;100167.31;6172279;28;96496;-68
2022/11/11 12:56:38;;;;;;;;;9.20;9.20;;;;;20.54;37.02;100153.56;6186118;28;96528;-67
2022/11/11 13:00:09;;;;;;;;;10.20;9.80;;;;;20.27;37.91;100155.41;6188932;28;96557;-68
2022/11/11 13:03:46;;;;;;;;;8.40;7.40;;;;;20.21;37.91;100151.75;6175632;28;96550;-67
2022/11/11 13:07:33;;;;;;;;;9.00;7.40;;;;;20.05;37.98;100143.59;6178865;28;96673;-68
2022/11/11 13:11:03;;;;;;;;;8.40;8.00;;;;;19.92;38.38;100143.97;6176987;28;96558;-68
2022/11/11 13:14:44;;;;;;;;;10.80;9.00;;;;;19.61;39.58;100131.72;6163208;28;97059;-68
2022/11/11 13:18:12;;;;;;;;;8.00;8.00;;;;;19.57;39.90;100130.59;6186552;28;96280;-68
2022/11/11 13:21:45;;;;;;;;;8.25;7.00;;;;;19.50;40.52;100151.81;6190547;28;96500;-68
2022/11/11 13:25:16;;;;;;;;;9.00;8.00;;;;;19.38;40.90;100141.75;6159652;28;98556;-68
2022/11/11 13:28:48;;;;;;;;;9.00;8.00;;;;;19.32;40.48;100140.00;6171616;28;96682;-66
2022/11/11 13:32:15;;;;;;;;;9.00;7.00;;;;;19.22;41.34;100144.47;6184652;28;96346;-68
2022/11/11 13:35:42;;;;;;;;;8.00;8.00;;;;;19.02;41.67;100110.25;6182118;28;96992;-66
2022/11/11 13:39:04;;;;;;;;;11.00;8.00;;;;;19.16;41.77;100124.41;6190041;28;96246;-67
2022/11/11 13:42:37;;;;;;;;;6.00;6.00;;;;;19.21;41.60;100124.50;6189962;28;96426;-66
2022/11/11 13:46:03;;;;;;;;;11.00;9.00;;;;;19.18;41.88;100133.22;6189833;28;97052;-68
2022/11/11 13:49:29;;;;;;;;;9.50;8.50;;;;;19.13;42.01;100130.38;6189732;28;96262;-69
2022/11/11 13:52:58;;;;;;;;;8.00;7.00;;;;;19.10;41.65;100124.59;6175567;28;96868;-68
2022/11/11 13:56:26;;;;;;;;;10.00;8.67;;;;;18.97;42.43;100136.66;6188949;28;96502;-67
2022/11/11 14:00:04;;;;;;;;;10.40;9.40;;;;;18.83;42.49;100119.75;6164236;28;96803;-68
2022/11/11 14:03:33;;;;;;;;;10.25;9.00;;;;;18.87;42.88;100122.81;6187844;28;96809;-67
2022/11/11 14:06:55;;;;;;;;;13.00;12.40;;;;;18.85;42.69;100130.44;6175589;28;96414;-67
2022/11/11 14:10:49;;;;;;;;;10.75;9.75;;;;;18.79;42.74;100136.88;6188575;28;96542;-67
2022/11/11 14:14:45;;;;;;;;;10.20;10.00;;;;;18.64;43.68;100136.59;6188976;28;96851;-67
2022/11/11 14:18:38;;;;;;;;;9.20;9.20;;;;;18.54;43.60;100127.13;6187794;28;96366;-66
2022/11/11 14:22:01;;;;;;;;;12.00;11.00;;;;;18.62;43.76;100144.22;6188956;28;96407;-68
2022/11/11 14:25:26;;;;;;;;;12.00;11.00;;;;;18.55;44.14;100156.09;6162156;28;96712;-67
2022/11/11 14:28:58;;;;;;;;;13.00;12.00;;;;;18.47;44.65;100153.69;6188606;28;96875;-68
2022/11/11 14:32:37;;;;;;;;;11.00;11.00;;;;;18.34;44.77;100153.16;6182044;28;96374;-68
2022/11/11 14:36:07;;;;;;;;;12.80;11.80;;;;;18.32;45.05;100161.59;6170753;28;96945;-66
2022/11/11 14:39:38;;;;;;;;;12.00;10.00;;;;;18.22;45.42;100163.28;6188754;28;96358;-67
2022/11/11 14:43:20;;;;;;;;;11.40;10.40;;;;;18.04;45.55;100145.13;6188554;28;96362;-67
2022/11/11 14:47:16;;;;;;;;;10.80;10.00;;;;;18.10;45.58;100163.28;6173333;28;96609;-66
2022/11/11 14:50:44;;;;;;;;;12.40;11.40;;;;;18.07;45.68;100166.50;6172531;28;97607;-67
2022/11/11 14:54:32;;;;;;;;;13.00;12.00;;;;;17.98;45.86;100168.78;6187983;28;96929;-67
2022/11/11 14:57:59;;;;;;;;;13.60;12.00;;;;;17.79;46.60;100153.59;6187730;28;96436;-66
2022/11/11 15:01:22;;;;;;;;;14.00;12.60;;;;;17.66;47.45;100171.03;6188089;28;96842;-67
2022/11/11 15:04:44;;;;;;;;;15.60;14.00;;;;;17.52;47.92;100179.66;6187965;28;97573;-67
2022/11/11 15:08:22;;;;;;;;;14.80;12.00;;;;;17.46;48.16;100173.25;6188310;28;96246;-68
2022/11/11 15:11:51;;;;;;;;;13.00;13.00;;;;;17.37;48.30;100166.47;6188047;28;96292;-68
2022/11/11 15:15:21;;;;;;;;;14.60;14.00;;;;;17.31;48.57;100172.84;6187934;28;96422;-66
2022/11/11 15:19:10;;;;;;;;;17.75;14.00;;;;;17.15;48.69;100152.56;6163171;28;96282;-67
2022/11/11 15:22:48;;;;;;;;;14.00;14.00;;;;;17.16;48.91;100176.03;6186330;28;96338;-66
2022/11/11 15:26:21;;;;;;;;;16.80;15.20;;;;;17.15;49.01;100173.56;6187587;28;96350;-66
2022/11/11 15:30:06;;;;;;;;;15.60;14.60;;;;;16.98;50.18;100184.25;6187535;28;96421;-66
2022/11/11 15:33:44;;;;;;;;;17.00;14.60;;;;;16.82;50.45;100174.84;6160808;28;97527;-66
2022/11/11 15:37:11;;;;;;;;;15.40;13.00;;;;;16.65;51.65;100171.13;6175557;28;96359;-66
2022/11/11 15:40:45;;;;;;;;;15.80;14.80;;;;;16.58;51.31;100175.81;6160551;28;96706;-67
2022/11/11 15:44:18;;;;;;;;;16.50;15.50;;;;;16.52;51.82;100181.31;6184054;28;96316;-66
2022/11/11 15:47:40;;;;;;;;;17.40;16.40;;;;;16.53;51.54;100188.41;6187480;28;96533;-66
2022/11/11 15:51:15;;;;;;;;;19.20;17.00;;;;;16.49;51.74;100185.31;6186482;28;96409;-67
2022/11/11 15:54:39;;;;;;;;;18.20;17.20;;;;;16.40;52.68;100183.97;6170945;28;96327;-67
2022/11/11 15:58:12;;;;;;;;;19.40;18.00;;;;;16.33;52.58;100191.38;6186707;28;96880;-66
2022/11/11 16:01:37;;;;;;;;;17.00;16.00;;;;;16.29;52.28;100193.72;6178924;28;98337;-66
2022/11/11 16:05:01;;;;;;;;;14.20;13.20;;;;;16.27;52.46;100197.75;6180751;28;96291;-68
2022/11/11 16:08:23;;;;;;;;;16.60;15.00;;;;;16.28;52.30;100191.22;6179372;28;96639;-66
2022/11/11 16:11:46;;;;;;;;;17.50;15.00;;;;;16.21;52.51;100201.38;6174287;28;96784;-66
2022/11/11 16:15:09;;;;;;;;;19.00;15.25;;;;;16.21;52.42;100207.66;6176443;28;97481;-67
2022/11/11 16:18:40;;;;;;;;;18.60;16.00;;;;;16.12;52.76;100198.13;6182541;28;96927;-66
2022/11/11 16:22:07;;;;;;;;;19.00;16.75;;;;;16.00;53.29;100195.31;6183037;28;96555;-67
2022/11/11 16:25:30;;;;;;;;;19.75;18.50;;;;;15.89;53.78;100187.03;6183477;28;96399;-67
2022/11/11 16:28:54;;;;;;;;;19.75;16.75;;;;;15.74;54.63;100186.56;6182636;28;96280;-66
2022/11/11 16:32:33;;;;;;;;;23.60;20.60;;;;;15.64;54.75;100178.09;6184703;28;96889;-66
2022/11/11 16:36:07;;;;;;;;;21.40;19.60;;;;;15.53;54.85;100183.22;6189270;28;96465;-67
2022/11/11 16:39:30;;;;;;;;;23.20;22.00;;;;;15.39;55.70;100184.34;6186624;28;97526;-66
2022/11/11 16:42:52;;;;;;;;;22.75;21.00;;;;;15.35;55.82;100190.41;6166790;28;96645;-66
2022/11/11 16:46:15;;;;;;;;;25.20;23.00;;;;;15.32;55.80;100194.44;6186637;28;96720;-66
2022/11/11 16:49:40;;;;;;;;;22.60;21.80;;;;;15.26;56.28;100189.88;6172981;28;97080;-66
2022/11/11 16:53:06;;;;;;;;;24.60;23.80;;;;;15.26;55.52;100175.44;6175357;28;97128;-67
2022/11/11 16:56:31;;;;;;;;;25.80;23.00;;;;;15.37;55.28;100204.63;6168236;28;96366;-66
2022/11/11 16:59:58;;;;;;;;;23.80;21.20;;;;;15.31;55.51;100198.19;6171626;28;97992;-66
2022/11/11 17:03:23;;;;;;;;;26.00;23.60;;;;;15.37;55.28;100197.31;6160666;28;96689;-67
2022/11/11 17:06:50;;;;;;;;;23.60;22.00;;;;;15.36;55.53;100197.53;6185787;28;96663;-67